Time;durP1;ratioP1;P1;durP2;ratioP2;P2;SDS_P1;SDS_P2;PMS_P1;PMS_P2;Temp;Humidity;BMP_temperature;BMP_pressure;BME280_temperature;BME280_humidity;BME280_pressure;Samples;Min_cycle;Max_cycle;Signal;HPM_P1;HPM_P2
2022/07/04 00:00:43;;;;;;;8.35;5.38;;;;;;;;;;5009920;28;20080;-73
2022/07/04 00:03:09;;;;;;;13.38;4.95;;;;;;;;;;5006527;28;20069;-73
2022/07/04 00:05:35;;;;;;;6.00;4.82;;;;;;;;;;5011883;28;20030;-73
2022/07/04 00:08:01;;;;;;;10.73;4.82;;;;;;;;;;5007126;28;20034;-73
2022/07/04 00:10:28;;;;;;;7.97;4.53;;;;;;;;;;5000786;28;20034;-73
2022/07/04 00:12:54;;;;;;;7.18;4.80;;;;;;;;;;5017290;28;20046;-73
2022/07/04 00:15:20;;;;;;;9.50;4.15;;;;;;;;;;5010681;28;20026;-74
2022/07/04 00:17:46;;;;;;;7.53;4.68;;;;;;;;;;5004548;28;20030;-74
2022/07/04 00:20:12;;;;;;;9.15;4.68;;;;;;;;;;5012509;28;20022;-74
2022/07/04 00:22:39;;;;;;;11.50;5.07;;;;;;;;;;5000976;28;20026;-73
2022/07/04 00:25:05;;;;;;;8.10;4.88;;;;;;;;;;5013394;28;20014;-73
2022/07/04 00:27:32;;;;;;;9.30;4.50;;;;;;;;;;5000816;28;20030;-73
2022/07/04 00:29:58;;;;;;;8.93;4.78;;;;;;;;;;5006200;28;20111;-72
2022/07/04 00:32:24;;;;;;;15.95;4.50;;;;;;;;;;5004037;28;20025;-72
2022/07/04 00:34:50;;;;;;;25.70;5.45;;;;;;;;;;5007481;28;20373;-73
2022/07/04 00:37:17;;;;;;;12.02;4.20;;;;;;;;;;5008198;28;20017;-73
2022/07/04 00:39:43;;;;;;;8.18;4.30;;;;;;;;;;5014382;28;20087;-73
2022/07/04 00:42:10;;;;;;;8.95;4.65;;;;;;;;;;5008726;28;20022;-73
2022/07/04 00:44:36;;;;;;;10.18;4.05;;;;;;;;;;5001479;28;20044;-73
2022/07/04 00:47:03;;;;;;;7.55;4.85;;;;;;;;;;5003123;28;20520;-73
2022/07/04 00:49:29;;;;;;;9.55;4.93;;;;;;;;;;5000071;28;20022;-73
2022/07/04 00:51:56;;;;;;;12.82;4.90;;;;;;;;;;5006524;28;20033;-73
2022/07/04 00:54:26;;;;;;;10.75;4.50;;;;;;;;;;4999132;28;20129;-72
2022/07/04 00:56:52;;;;;;;6.68;4.15;;;;;;;;;;5006393;28;20478;-73
2022/07/04 00:59:18;;;;;;;8.13;4.03;;;;;;;;;;5007510;28;20045;-73
2022/07/04 01:01:45;;;;;;;7.22;4.13;;;;;;;;;;5002280;28;20037;-73
2022/07/04 01:04:11;;;;;;;7.82;3.80;;;;;;;;;;5012222;28;20022;-73
2022/07/04 01:06:38;;;;;;;10.60;4.30;;;;;;;;;;5004944;28;20026;-76
2022/07/04 01:09:05;;;;;;;10.30;4.80;;;;;;;;;;5013636;28;20026;-74
2022/07/04 01:11:31;;;;;;;10.18;4.40;;;;;;;;;;5002998;28;20098;-73
2022/07/04 01:13:58;;;;;;;11.98;4.18;;;;;;;;;;4995819;28;20466;-73
2022/07/04 01:16:28;;;;;;;9.25;3.97;;;;;;;;;;4995318;28;20035;-74
2022/07/04 01:18:54;;;;;;;10.48;3.97;;;;;;;;;;4992599;28;20023;-73
2022/07/04 01:21:20;;;;;;;6.80;3.85;;;;;;;;;;5002734;28;20100;-73
2022/07/04 01:23:47;;;;;;;5.43;3.25;;;;;;;;;;5004404;28;20030;-76
2022/07/04 01:26:13;;;;;;;9.55;4.22;;;;;;;;;;4994925;28;20030;-73
2022/07/04 01:28:39;;;;;;;8.32;3.80;;;;;;;;;;4994859;28;20056;-73
2022/07/04 01:31:06;;;;;;;10.27;3.97;;;;;;;;;;4999961;28;20045;-73
2022/07/04 01:33:32;;;;;;;7.65;4.38;;;;;;;;;;4991603;28;20482;-73
2022/07/04 01:35:59;;;;;;;10.48;4.60;;;;;;;;;;4996165;28;20022;-74
2022/07/04 01:38:25;;;;;;;15.88;5.43;;;;;;;;;;4993061;28;20034;-73
2022/07/04 01:40:51;;;;;;;9.63;4.28;;;;;;;;;;5000985;28;20821;-73
2022/07/04 01:43:17;;;;;;;12.63;4.72;;;;;;;;;;4995915;28;20034;-73
2022/07/04 01:45:44;;;;;;;8.98;4.80;;;;;;;;;;4991678;28;20022;-73
2022/07/04 01:48:11;;;;;;;9.65;4.88;;;;;;;;;;4995395;28;20707;-74
2022/07/04 01:50:37;;;;;;;7.05;4.65;;;;;;;;;;4993250;28;20548;-73
2022/07/04 01:53:03;;;;;;;7.68;4.70;;;;;;;;;;5001600;28;20076;-73
2022/07/04 01:55:29;;;;;;;9.35;5.22;;;;;;;;;;4993757;28;20088;-73
2022/07/04 01:57:56;;;;;;;7.65;5.07;;;;;;;;;;4990209;28;20100;-73
2022/07/04 02:03:07;;;;;;;13.02;5.68;;;;;;;;;;4991619;28;20073;-73
2022/07/04 02:05:33;;;;;;;10.25;5.13;;;;;;;;;;4994839;28;20015;-73
2022/07/04 02:08:00;;;;;;;11.55;5.53;;;;;;;;;;4998665;28;20038;-74
2022/07/04 02:10:26;;;;;;;15.88;4.82;;;;;;;;;;5003381;28;20037;-73
2022/07/04 02:13:02;;;;;;;10.20;5.30;;;;;;;;;;4996307;28;20030;-73
2022/07/04 02:15:35;;;;;;;9.65;5.38;;;;;;;;;;4998595;28;20026;-75
2022/07/04 02:18:01;;;;;;;9.77;4.93;;;;;;;;;;4999147;28;20054;-73
2022/07/04 02:20:27;;;;;;;11.45;4.80;;;;;;;;;;4994584;28;20022;-74
2022/07/04 02:22:54;;;;;;;11.02;4.93;;;;;;;;;;5001190;28;20462;-73
2022/07/04 02:25:20;;;;;;;15.57;4.93;;;;;;;;;;4995423;28;20018;-74
2022/07/04 02:27:46;;;;;;;12.50;5.15;;;;;;;;;;4993039;28;20064;-73
2022/07/04 02:30:12;;;;;;;11.02;4.97;;;;;;;;;;5003159;28;20475;-73
2022/07/04 02:32:39;;;;;;;13.45;5.03;;;;;;;;;;4992263;28;20499;-72
2022/07/04 02:35:05;;;;;;;11.30;4.82;;;;;;;;;;4991453;28;20025;-73
2022/07/04 02:37:32;;;;;;;8.70;4.93;;;;;;;;;;5002779;28;20026;-73
2022/07/04 02:39:58;;;;;;;10.13;5.18;;;;;;;;;;4991138;28;20073;-73
2022/07/04 02:42:24;;;;;;;9.00;5.07;;;;;;;;;;4994699;28;20110;-73
2022/07/04 02:44:50;;;;;;;8.85;4.90;;;;;;;;;;4994752;28;20081;-73
2022/07/04 02:47:16;;;;;;;11.73;5.70;;;;;;;;;;4995310;28;20029;-73
2022/07/04 02:49:43;;;;;;;11.90;5.20;;;;;;;;;;4990226;28;20026;-73
2022/07/04 02:52:09;;;;;;;10.85;5.55;;;;;;;;;;5000160;28;20100;-73
2022/07/04 02:54:35;;;;;;;7.65;5.47;;;;;;;;;;4997460;28;20451;-73
2022/07/04 02:57:01;;;;;;;9.55;5.15;;;;;;;;;;4994861;28;20029;-73
2022/07/04 02:59:27;;;;;;;14.70;4.95;;;;;;;;;;4993175;28;20054;-73
2022/07/04 03:01:53;;;;;;;15.48;5.53;;;;;;;;;;4991325;28;20019;-73
2022/07/04 03:04:19;;;;;;;13.10;5.10;;;;;;;;;;4991609;28;20022;-74
2022/07/04 03:06:45;;;;;;;12.43;5.60;;;;;;;;;;4989132;28;20023;-73
2022/07/04 03:09:11;;;;;;;10.82;5.03;;;;;;;;;;4998235;28;20034;-73
2022/07/04 03:11:38;;;;;;;9.80;4.93;;;;;;;;;;5002090;28;20017;-73
2022/07/04 03:14:04;;;;;;;17.38;4.82;;;;;;;;;;4994142;28;20038;-78
2022/07/04 03:16:30;;;;;;;12.35;5.22;;;;;;;;;;5002803;28;20025;-73
2022/07/04 03:18:56;;;;;;;10.80;5.10;;;;;;;;;;4990081;28;20065;-73
2022/07/04 03:21:22;;;;;;;12.02;5.10;;;;;;;;;;4992504;28;20080;-72
2022/07/04 03:23:57;;;;;;;13.93;5.68;;;;;;;;;;4989340;28;20026;-73
2022/07/04 03:26:29;;;;;;;13.32;4.90;;;;;;;;;;4990438;28;20014;-73
2022/07/04 03:28:55;;;;;;;11.57;4.35;;;;;;;;;;4994382;28;20038;-73
2022/07/04 03:31:21;;;;;;;14.18;4.85;;;;;;;;;;4994326;28;20026;-73
2022/07/04 03:33:48;;;;;;;11.35;4.70;;;;;;;;;;4989853;28;20038;-73
2022/07/04 03:36:14;;;;;;;13.35;5.00;;;;;;;;;;4989577;28;20088;-73
2022/07/04 03:38:40;;;;;;;9.80;4.20;;;;;;;;;;4991866;28;20084;-73
2022/07/04 03:41:06;;;;;;;8.55;4.55;;;;;;;;;;4991668;28;20487;-73
2022/07/04 03:43:33;;;;;;;7.13;4.22;;;;;;;;;;4991043;28;20026;-73
2022/07/04 03:45:59;;;;;;;11.90;4.70;;;;;;;;;;4989145;28;20042;-73
2022/07/04 03:48:25;;;;;;;8.60;4.70;;;;;;;;;;4987919;28;20096;-73
2022/07/04 03:50:51;;;;;;;10.50;4.55;;;;;;;;;;4996130;28;20030;-73
2022/07/04 03:53:19;;;;;;;7.50;4.03;;;;;;;;;;4987746;28;20036;-73
2022/07/04 03:55:45;;;;;;;9.02;4.18;;;;;;;;;;4993249;28;20585;-76
2022/07/04 03:58:11;;;;;;;12.73;4.20;;;;;;;;;;4988107;28;20026;-73
2022/07/04 04:00:38;;;;;;;8.23;4.03;;;;;;;;;;4989883;28;20041;-73
2022/07/04 04:05:26;;;;;;;8.55;3.97;;;;;;;;;;4994702;28;20034;-73
2022/07/04 04:05:50;;;;;;;8.55;4.45;;;;;;;;;;4993626;28;20080;-73
2022/07/04 04:08:16;;;;;;;6.18;3.78;;;;;;;;;;4988548;28;20042;-76
2022/07/04 04:10:42;;;;;;;9.88;4.32;;;;;;;;;;4991750;28;20026;-74
2022/07/04 04:13:08;;;;;;;10.13;4.22;;;;;;;;;;4994880;28;20057;-73
2022/07/04 04:15:35;;;;;;;12.10;4.13;;;;;;;;;;5000383;28;20022;-76
2022/07/04 04:18:01;;;;;;;10.13;4.30;;;;;;;;;;4994919;28;20029;-73
2022/07/04 04:20:27;;;;;;;13.52;4.20;;;;;;;;;;5006677;28;20395;-72
2022/07/04 04:22:53;;;;;;;9.27;4.10;;;;;;;;;;5017381;28;20740;-73
2022/07/04 04:25:19;;;;;;;11.82;4.32;;;;;;;;;;5011609;28;20030;-73
2022/07/04 04:27:45;;;;;;;9.80;3.78;;;;;;;;;;5015461;28;20041;-73
2022/07/04 04:30:11;;;;;;;10.27;3.80;;;;;;;;;;5011366;28;20022;-73
2022/07/04 04:32:38;;;;;;;7.57;3.97;;;;;;;;;;5020114;28;20224;-74
2022/07/04 04:35:04;;;;;;;13.90;5.22;;;;;;;;;;5005416;28;20423;-73
2022/07/04 04:37:30;;;;;;;10.15;4.68;;;;;;;;;;5005237;28;20548;-73
2022/07/04 04:39:56;;;;;;;7.63;3.95;;;;;;;;;;5007276;28;20033;-73
2022/07/04 04:42:23;;;;;;;8.13;4.32;;;;;;;;;;5008964;28;20856;-73
2022/07/04 04:44:49;;;;;;;9.30;4.05;;;;;;;;;;5026731;28;20474;-73
2022/07/04 04:47:15;;;;;;;11.52;4.40;;;;;;;;;;5024319;28;20447;-73
2022/07/04 04:49:41;;;;;;;6.22;3.50;;;;;;;;;;5013344;28;20049;-73
2022/07/04 04:52:07;;;;;;;11.23;4.50;;;;;;;;;;5026542;28;20021;-73
2022/07/04 04:54:34;;;;;;;9.25;4.10;;;;;;;;;;5026160;28;20021;-72
2022/07/04 04:57:00;;;;;;;15.32;4.10;;;;;;;;;;5026721;28;20065;-73
2022/07/04 04:59:29;;;;;;;13.15;4.50;;;;;;;;;;5026357;28;20053;-74
2022/07/04 05:01:55;;;;;;;10.23;5.25;;;;;;;;;;5024875;28;20121;-72
2022/07/04 05:04:21;;;;;;;11.10;6.20;;;;;;;;;;5026198;28;20033;-73
2022/07/04 05:06:47;;;;;;;12.95;6.38;;;;;;;;;;5026067;28;20508;-73
2022/07/04 05:09:13;;;;;;;11.75;6.18;;;;;;;;;;5025995;28;20659;-73
2022/07/04 05:11:40;;;;;;;10.23;5.47;;;;;;;;;;5025637;28;20017;-73
2022/07/04 05:14:06;;;;;;;10.93;6.07;;;;;;;;;;5024211;28;20060;-73
2022/07/04 05:16:32;;;;;;;10.68;5.40;;;;;;;;;;5025780;28;20017;-73
2022/07/04 05:18:58;;;;;;;10.48;5.75;;;;;;;;;;5024922;28;20033;-73
2022/07/04 05:21:26;;;;;;;12.50;5.65;;;;;;;;;;5023967;28;20022;-73
2022/07/04 05:23:53;;;;;;;8.63;5.18;;;;;;;;;;5025396;28;20079;-73
2022/07/04 05:26:19;;;;;;;11.88;5.18;;;;;;;;;;5025243;28;20056;-73
2022/07/04 05:28:45;;;;;;;13.77;5.70;;;;;;;;;;5014722;28;20049;-73
2022/07/04 05:31:11;;;;;;;12.70;5.45;;;;;;;;;;5023498;28;20032;-73
2022/07/04 05:33:37;;;;;;;21.23;7.07;;;;;;;;;;5002824;28;20037;-73
2022/07/04 05:36:03;;;;;;;18.48;5.95;;;;;;;;;;5002229;28;20026;-73
2022/07/04 05:38:30;;;;;;;12.63;5.55;;;;;;;;;;5004916;28;20036;-73
2022/07/04 05:40:56;;;;;;;15.10;6.07;;;;;;;;;;5002723;28;20030;-72
2022/07/04 05:43:22;;;;;;;15.55;6.07;;;;;;;;;;5005239;28;20025;-73
2022/07/04 05:45:48;;;;;;;15.18;5.75;;;;;;;;;;5005364;28;20026;-73
2022/07/04 05:48:14;;;;;;;10.90;5.75;;;;;;;;;;5004883;28;20038;-73
2022/07/04 05:50:41;;;;;;;9.43;5.97;;;;;;;;;;5003472;28;20030;-73
2022/07/04 05:53:07;;;;;;;12.10;6.28;;;;;;;;;;5007356;28;20018;-72
2022/07/04 05:55:34;;;;;;;11.70;6.00;;;;;;;;;;5007039;28;20026;-74
2022/07/04 05:58:00;;;;;;;10.75;5.28;;;;;;;;;;5004455;28;20553;-72
2022/07/04 06:00:26;;;;;;;15.32;5.40;;;;;;;;;;5008420;28;20413;-72
2022/07/04 06:02:52;;;;;;;9.20;4.55;;;;;;;;;;5003202;28;20033;-73
2022/07/04 06:05:19;;;;;;;8.95;5.05;;;;;;;;;;5005592;28;20068;-73
2022/07/04 06:07:45;;;;;;;10.00;4.38;;;;;;;;;;5004261;28;20056;-73
2022/07/04 06:10:11;;;;;;;9.57;4.75;;;;;;;;;;5003526;28;20697;-73
2022/07/04 06:12:37;;;;;;;8.75;4.60;;;;;;;;;;5005311;28;20030;-73
2022/07/04 06:15:05;;;;;;;7.47;4.47;;;;;;;;;;5014821;28;20428;-73
2022/07/04 06:17:31;;;;;;;8.10;4.50;;;;;;;;;;5024713;28;20052;-73
2022/07/04 06:19:57;;;;;;;11.25;5.00;;;;;;;;;;5024988;28;20087;-73
2022/07/04 06:22:23;;;;;;;8.48;4.50;;;;;;;;;;5022633;28;20474;-73
2022/07/04 06:24:50;;;;;;;10.15;5.20;;;;;;;;;;5024604;28;20525;-73
2022/07/04 06:27:16;;;;;;;14.93;4.80;;;;;;;;;;5024115;28;20728;-73
2022/07/04 06:29:42;;;;;;;11.50;4.90;;;;;;;;;;5023632;28;20030;-73
2022/07/04 06:32:08;;;;;;;11.32;5.00;;;;;;;;;;5019170;28;20022;-73
2022/07/04 06:37:19;;;;;;;14.05;5.72;;;;;;;;;;5001202;28;20026;-73
2022/07/04 06:39:45;;;;;;;9.85;4.95;;;;;;;;;;5016512;28;20087;-73
2022/07/04 06:42:11;;;;;;;13.68;4.88;;;;;;;;;;5024212;28;20026;-74
2022/07/04 06:44:37;;;;;;;10.70;5.10;;;;;;;;;;5022432;28;20375;-74
2022/07/04 06:47:04;;;;;;;14.30;5.25;;;;;;;;;;5023652;28;20029;-73
2022/07/04 06:49:30;;;;;;;12.77;5.15;;;;;;;;;;5024693;28;20017;-74
2022/07/04 06:51:56;;;;;;;10.75;5.05;;;;;;;;;;5023321;28;20547;-74
2022/07/04 06:54:22;;;;;;;13.60;5.50;;;;;;;;;;5022251;28;20454;-73
2022/07/04 06:56:48;;;;;;;9.15;4.82;;;;;;;;;;5024351;28;20476;-74
2022/07/04 06:59:14;;;;;;;8.73;4.95;;;;;;;;;;5023596;28;20054;-74
2022/07/04 07:01:41;;;;;;;15.85;6.60;;;;;;;;;;5023266;28;20051;-74
2022/07/04 07:04:07;;;;;;;11.32;5.40;;;;;;;;;;5023032;28;20056;-74
2022/07/04 07:06:33;;;;;;;9.00;5.60;;;;;;;;;;5023786;28;20358;-74
2022/07/04 07:08:59;;;;;;;7.47;4.70;;;;;;;;;;5021695;28;20028;-73
2022/07/04 07:11:26;;;;;;;9.00;5.05;;;;;;;;;;5019306;28;20041;-74
2022/07/04 07:13:52;;;;;;;10.40;5.35;;;;;;;;;;4998978;28;20033;-73
2022/07/04 07:16:19;;;;;;;8.70;4.75;;;;;;;;;;5006201;28;20018;-74
2022/07/04 07:18:45;;;;;;;11.52;4.57;;;;;;;;;;5002701;28;20030;-74
2022/07/04 07:21:11;;;;;;;9.45;4.70;;;;;;;;;;5016730;28;20021;-74
2022/07/04 07:23:39;;;;;;;10.73;4.57;;;;;;;;;;5017092;28;20022;-74
2022/07/04 07:26:05;;;;;;;8.40;4.88;;;;;;;;;;4998818;28;20050;-74
2022/07/04 07:28:31;;;;;;;5.10;4.18;;;;;;;;;;5018938;28;20029;-74
2022/07/04 07:30:57;;;;;;;8.73;4.55;;;;;;;;;;5009083;28;20022;-74
2022/07/04 07:33:23;;;;;;;11.57;5.03;;;;;;;;;;5004027;28;20025;-73
2022/07/04 07:35:49;;;;;;;12.00;5.32;;;;;;;;;;5012050;28;20171;-74
2022/07/04 07:38:15;;;;;;;6.68;4.65;;;;;;;;;;5021378;28;20117;-74
2022/07/04 07:40:41;;;;;;;7.53;4.47;;;;;;;;;;5023555;28;20022;-74
2022/07/04 07:43:08;;;;;;;9.57;4.88;;;;;;;;;;5024929;28;20033;-74
2022/07/04 07:45:34;;;;;;;12.13;4.90;;;;;;;;;;5027130;28;20445;-74
2022/07/04 07:48:00;;;;;;;11.20;4.35;;;;;;;;;;5023834;28;20501;-74
2022/07/04 07:50:27;;;;;;;13.93;5.20;;;;;;;;;;5027061;28;20029;-74
2022/07/04 07:52:53;;;;;;;11.95;4.88;;;;;;;;;;5010296;28;20374;-74
2022/07/04 07:55:19;;;;;;;8.95;4.65;;;;;;;;;;4995483;28;20257;-74
2022/07/04 07:57:45;;;;;;;8.38;4.20;;;;;;;;;;5001900;28;20149;-74
2022/07/04 08:00:11;;;;;;;7.78;3.97;;;;;;;;;;4995679;28;20599;-74
2022/07/04 08:05:22;;;;;;;9.05;5.25;;;;;;;;;;5015131;28;20118;-74
2022/07/04 08:07:48;;;;;;;8.93;4.68;;;;;;;;;;5026309;28;20033;-73
2022/07/04 08:10:15;;;;;;;8.35;4.53;;;;;;;;;;5005472;28;20034;-74
2022/07/04 08:12:41;;;;;;;12.93;5.18;;;;;;;;;;5016559;28;20440;-74
2022/07/04 08:15:07;;;;;;;7.85;5.20;;;;;;;;;;5026119;28;20024;-73
2022/07/04 08:17:34;;;;;;;9.07;4.70;;;;;;;;;;5025069;28;20056;-74
2022/07/04 08:20:00;;;;;;;13.73;5.70;;;;;;;;;;5026146;28;20461;-74
2022/07/04 08:22:26;;;;;;;8.43;4.72;;;;;;;;;;5026272;28;20046;-74
2022/07/04 08:24:52;;;;;;;7.82;4.65;;;;;;;;;;5026117;28;20032;-74
2022/07/04 08:27:18;;;;;;;10.23;4.80;;;;;;;;;;5026209;28;20107;-73
2022/07/04 08:29:45;;;;;;;6.72;4.85;;;;;;;;;;5025663;28;20040;-74
2022/07/04 08:32:11;;;;;;;6.70;4.60;;;;;;;;;;5024465;28;20091;-74
2022/07/04 08:34:37;;;;;;;14.02;6.63;;;;;;;;;;5026298;28;20441;-73
2022/07/04 08:37:03;;;;;;;10.05;6.20;;;;;;;;;;5025985;28;20386;-73
2022/07/04 08:39:30;;;;;;;9.88;6.07;;;;;;;;;;5006359;28;20059;-73
2022/07/04 08:42:02;;;;;;;10.25;5.32;;;;;;;;;;5004947;28;20117;-76
2022/07/04 08:44:28;;;;;;;10.15;5.07;;;;;;;;;;4999992;28;20529;-74
2022/07/04 08:46:55;;;;;;;7.57;4.78;;;;;;;;;;5022664;28;20025;-73
2022/07/04 08:49:22;;;;;;;12.43;4.90;;;;;;;;;;5014116;28;20040;-73
2022/07/04 08:51:55;;;;;;;11.88;4.97;;;;;;;;;;5024682;28;20052;-74
2022/07/04 08:59:55;;;;;;;13.35;5.07;;;;;;;;;;5021918;28;20524;-76
2022/07/04 09:02:23;;;;;;;26.45;6.13;;;;;;;;;;5004717;28;20406;-73
2022/07/04 09:04:50;;;;;;;12.18;5.35;;;;;;;;;;5013559;28;20041;-73
2022/07/04 09:07:17;;;;;;;27.55;6.40;;;;;;;;;;5025277;28;20592;-73
2022/07/04 09:09:44;;;;;;;13.38;5.43;;;;;;;;;;5025033;28;20032;-73
2022/07/04 09:12:10;;;;;;;8.85;5.22;;;;;;;;;;5025068;28;20441;-73
2022/07/04 09:14:37;;;;;;;8.23;4.70;;;;;;;;;;5025834;28;20041;-73
2022/07/04 09:17:04;;;;;;;6.45;4.82;;;;;;;;;;5024105;28;20037;-73
2022/07/04 09:19:30;;;;;;;9.88;5.32;;;;;;;;;;5006956;28;20105;-72
2022/07/04 09:21:56;;;;;;;23.33;5.45;;;;;;;;;;5008442;28;20018;-73
2022/07/04 09:24:44;;;;;;;11.73;5.13;;;;;;;;;;5007035;28;20030;-76
2022/07/04 09:27:10;;;;;;;11.35;4.60;;;;;;;;;;5001897;28;20557;-75
2022/07/04 09:29:53;;;;;;;11.82;5.22;;;;;;;;;;5005591;28;20022;-73
2022/07/04 09:32:34;;;;;;;9.98;4.35;;;;;;;;;;5004089;28;20041;-73
2022/07/04 09:35:00;;;;;;;7.00;4.53;;;;;;;;;;5004285;28;20022;-73
2022/07/04 09:37:41;;;;;;;9.35;4.13;;;;;;;;;;5003898;28;20021;-74
2022/07/04 09:40:09;;;;;;;6.90;3.72;;;;;;;;;;5002726;28;20224;-73
2022/07/04 09:42:36;;;;;;;9.73;3.65;;;;;;;;;;5005797;28;20454;-74
2022/07/04 09:45:06;;;;;;;6.45;3.75;;;;;;;;;;5004761;28;20033;-73
2022/07/04 09:47:33;;;;;;;7.57;3.50;;;;;;;;;;5004738;28;20675;-73
2022/07/04 09:50:00;;;;;;;7.95;3.47;;;;;;;;;;4999388;28;20066;-73
2022/07/04 09:52:27;;;;;;;10.23;3.30;;;;;;;;;;4998235;28;20449;-73
2022/07/04 09:54:57;;;;;;;4.70;3.15;;;;;;;;;;5003400;28;20138;-73
2022/07/04 09:57:23;;;;;;;9.32;3.45;;;;;;;;;;5003647;28;20470;-73
2022/07/04 09:59:50;;;;;;;9.90;3.60;;;;;;;;;;5003131;28;20469;-73
2022/07/04 10:02:16;;;;;;;4.95;2.67;;;;;;;;;;5001130;28;20548;-74
2022/07/04 10:04:51;;;;;;;7.15;3.25;;;;;;;;;;5002945;28;20493;-74
2022/07/04 10:07:32;;;;;;;6.80;3.47;;;;;;;;;;5003034;28;20457;-73
2022/07/04 10:09:59;;;;;;;5.40;3.30;;;;;;;;;;5003622;28;20034;-73
2022/07/04 10:12:26;;;;;;;10.23;3.03;;;;;;;;;;5003192;28;20100;-73
2022/07/04 10:14:54;;;;;;;8.18;3.30;;;;;;;;;;5007243;28;20021;-73
2022/07/04 10:17:20;;;;;;;8.40;3.50;;;;;;;;;;5017663;28;20022;-73
2022/07/04 10:19:50;;;;;;;8.15;3.40;;;;;;;;;;5004793;28;20034;-73
2022/07/04 10:22:18;;;;;;;6.63;3.50;;;;;;;;;;5004836;28;20354;-74
2022/07/04 10:24:44;;;;;;;4.57;3.15;;;;;;;;;;5005234;28;20037;-73
2022/07/04 10:27:11;;;;;;;7.22;3.33;;;;;;;;;;5006265;28;20486;-73
2022/07/04 10:29:37;;;;;;;9.52;4.00;;;;;;;;;;5004703;28;20037;-73
2022/07/04 10:32:06;;;;;;;6.95;3.25;;;;;;;;;;5011317;28;20486;-73
2022/07/04 10:34:39;;;;;;;6.95;2.90;;;;;;;;;;5024277;28;20120;-73
2022/07/04 10:37:05;;;;;;;5.82;3.15;;;;;;;;;;5024547;28;20044;-73
2022/07/04 10:39:31;;;;;;;8.13;3.03;;;;;;;;;;5024512;28;20307;-73
2022/07/04 10:41:58;;;;;;;6.10;2.97;;;;;;;;;;5022593;28;20431;-73
2022/07/04 10:44:26;;;;;;;9.48;3.42;;;;;;;;;;5024121;28;20049;-74
2022/07/04 10:46:56;;;;;;;5.32;2.75;;;;;;;;;;5024217;28;20492;-73
2022/07/04 10:49:24;;;;;;;7.18;3.00;;;;;;;;;;5024391;28;20443;-73
2022/07/04 10:51:52;;;;;;;5.55;2.70;;;;;;;;;;5024325;28;20063;-73
2022/07/04 10:54:18;;;;;;;7.22;2.80;;;;;;;;;;5023056;28;20026;-74
2022/07/04 10:56:55;;;;;;;7.22;2.90;;;;;;;;;;5024712;28;20378;-74
2022/07/04 10:59:21;;;;;;;7.10;2.70;;;;;;;;;;4997593;28;20050;-73
2022/07/04 11:02:16;;;;;;;7.85;2.67;;;;;;;;;;5024235;28;20029;-74
2022/07/04 11:05:01;;;;;;;7.20;2.85;;;;;;;;;;5022656;28;20288;-73
2022/07/04 11:07:30;;;;;;;8.07;3.03;;;;;;;;;;5023736;28;20033;-73
2022/07/04 11:10:23;;;;;;;10.52;3.40;;;;;;;;;;5024058;28;20017;-73
2022/07/04 11:12:51;;;;;;;7.40;2.92;;;;;;;;;;5021092;28;20037;-73
2022/07/04 11:15:18;;;;;;;5.05;2.70;;;;;;;;;;5023940;28;20025;-73
2022/07/04 11:17:44;;;;;;;8.27;3.30;;;;;;;;;;5024745;28;20026;-73
2022/07/04 11:20:11;;;;;;;5.85;2.65;;;;;;;;;;5026345;28;20428;-73
2022/07/04 11:22:37;;;;;;;6.05;2.75;;;;;;;;;;5028253;28;20091;-74
2022/07/04 11:25:04;;;;;;;9.38;2.70;;;;;;;;;;5027640;28;20025;-73
2022/07/04 11:27:30;;;;;;;5.82;2.67;;;;;;;;;;5027522;28;20489;-73
2022/07/04 11:29:56;;;;;;;8.00;3.30;;;;;;;;;;5028037;28;20235;-73
2022/07/04 11:32:30;;;;;;;7.40;2.80;;;;;;;;;;5028509;28;20013;-73
2022/07/04 11:34:56;;;;;;;7.63;2.95;;;;;;;;;;5007940;28;20056;-73
2022/07/04 11:37:22;;;;;;;5.82;2.97;;;;;;;;;;5005427;28;20030;-73
2022/07/04 11:39:52;;;;;;;8.15;2.63;;;;;;;;;;5006677;28;20034;-73
2022/07/04 11:45:05;;;;;;;8.60;2.72;;;;;;;;;;5007174;28;20045;-75
2022/07/04 11:47:43;;;;;;;7.30;3.30;;;;;;;;;;5007942;28;20108;-75
2022/07/04 11:50:11;;;;;;;8.40;3.25;;;;;;;;;;5008469;28;20259;-73
2022/07/04 11:52:37;;;;;;;4.75;2.70;;;;;;;;;;5007740;28;20034;-73
2022/07/04 11:55:07;;;;;;;5.20;2.83;;;;;;;;;;5017994;28;20359;-72
2022/07/04 11:57:34;;;;;;;9.55;2.83;;;;;;;;;;5027039;28;20489;-73
2022/07/04 12:00:00;;;;;;;6.88;2.70;;;;;;;;;;5027442;28;20045;-73
2022/07/04 12:02:28;;;;;;;4.47;2.55;;;;;;;;;;5025505;28;20471;-72
2022/07/04 12:04:54;;;;;;;5.22;3.08;;;;;;;;;;5027477;28;20471;-72
2022/07/04 12:07:22;;;;;;;6.50;3.00;;;;;;;;;;5027487;28;20033;-73
2022/07/04 12:09:48;;;;;;;6.55;3.35;;;;;;;;;;5027522;28;20025;-73
2022/07/04 12:12:17;;;;;;;4.82;2.67;;;;;;;;;;5027128;28;20021;-74
2022/07/04 12:15:01;;;;;;;5.72;2.85;;;;;;;;;;5027098;28;20109;-73
2022/07/04 12:17:32;;;;;;;4.63;2.58;;;;;;;;;;5025773;28;20426;-73
2022/07/04 12:19:59;;;;;;;6.20;2.70;;;;;;;;;;5026828;28;20018;-73
2022/07/04 12:22:36;;;;;;;3.92;2.90;;;;;;;;;;5026857;28;20138;-73
2022/07/04 12:25:02;;;;;;;8.30;2.80;;;;;;;;;;5027074;28;20359;-73
2022/07/04 12:27:29;;;;;;;5.32;2.35;;;;;;;;;;5026570;28;20030;-76
2022/07/04 12:29:57;;;;;;;6.20;3.33;;;;;;;;;;5026019;28;20038;-76
2022/07/04 12:32:23;;;;;;;5.13;3.00;;;;;;;;;;5025863;28;20446;-73
2022/07/04 12:34:49;;;;;;;4.95;3.10;;;;;;;;;;5026402;28;20025;-75
2022/07/04 12:37:16;;;;;;;11.88;3.38;;;;;;;;;;5026693;28;20021;-76
2022/07/04 12:39:43;;;;;;;7.40;2.85;;;;;;;;;;5027272;28;20329;-73
2022/07/04 12:42:17;;;;;;;6.55;3.10;;;;;;;;;;5026840;28;20028;-73
2022/07/04 12:44:44;;;;;;;6.78;3.10;;;;;;;;;;5025406;28;20158;-75
2022/07/04 12:47:12;;;;;;;11.63;3.72;;;;;;;;;;5026552;28;20060;-76
2022/07/04 12:49:42;;;;;;;7.30;3.38;;;;;;;;;;5026365;28;20021;-76
2022/07/04 12:52:15;;;;;;;10.13;3.60;;;;;;;;;;5024714;28;20018;-76
2022/07/04 12:54:42;;;;;;;9.88;3.45;;;;;;;;;;5009691;28;20035;-76
2022/07/04 12:57:13;;;;;;;8.70;3.00;;;;;;;;;;5008343;28;20026;-75
2022/07/04 12:59:39;;;;;;;7.22;3.15;;;;;;;;;;5026174;28;20045;-76
2022/07/04 13:02:06;;;;;;;6.82;3.38;;;;;;;;;;5002856;28;20129;-76
2022/07/04 13:04:33;;;;;;;7.55;3.67;;;;;;;;;;5026539;28;20053;-76
2022/07/04 13:07:00;;;;;;;9.27;3.25;;;;;;;;;;5026365;28;20025;-76
2022/07/04 13:09:26;;;;;;;5.45;2.83;;;;;;;;;;5026270;28;20030;-75
2022/07/04 13:14:37;;;;;;;5.50;3.30;;;;;;;;;;5024863;28;20059;-76
2022/07/04 13:17:04;;;;;;;7.53;3.13;;;;;;;;;;5026354;28;20405;-76
2022/07/04 13:19:30;;;;;;;6.40;3.33;;;;;;;;;;5025755;28;20497;-76
2022/07/04 13:21:56;;;;;;;8.10;3.40;;;;;;;;;;5025994;28;20027;-73
2022/07/04 13:24:22;;;;;;;6.80;3.30;;;;;;;;;;5025881;28;20033;-73
2022/07/04 13:26:48;;;;;;;6.85;3.45;;;;;;;;;;5025419;28;20017;-73
2022/07/04 13:29:14;;;;;;;7.38;3.22;;;;;;;;;;5023793;28;20076;-73
2022/07/04 13:31:40;;;;;;;6.43;3.28;;;;;;;;;;5025763;28;20029;-73
2022/07/04 13:34:06;;;;;;;12.63;3.70;;;;;;;;;;5026034;28;20027;-73
2022/07/04 13:36:33;;;;;;;10.88;3.50;;;;;;;;;;5025126;28;20030;-73
2022/07/04 13:38:59;;;;;;;6.20;3.50;;;;;;;;;;5025612;28;20029;-73
2022/07/04 13:41:25;;;;;;;9.88;3.72;;;;;;;;;;5024358;28;20028;-72
2022/07/04 13:43:51;;;;;;;12.98;3.97;;;;;;;;;;5023668;28;20021;-71
2022/07/04 13:46:18;;;;;;;10.13;3.70;;;;;;;;;;5016433;28;20034;-72
2022/07/04 13:48:44;;;;;;;13.82;4.28;;;;;;;;;;5008031;28;20030;-72
2022/07/04 13:51:10;;;;;;;13.75;4.65;;;;;;;;;;5003400;28;20382;-72
2022/07/04 13:53:36;;;;;;;12.90;4.20;;;;;;;;;;5007524;28;20026;-72
2022/07/04 13:56:04;;;;;;;6.80;4.30;;;;;;;;;;5009082;28;20041;-72
2022/07/04 13:58:30;;;;;;;6.63;3.78;;;;;;;;;;5006219;28;20037;-72
2022/07/04 14:00:56;;;;;;;8.82;3.67;;;;;;;;;;5011072;28;20036;-74
2022/07/04 14:03:22;;;;;;;8.68;3.42;;;;;;;;;;5005942;28;20057;-72
2022/07/04 14:05:48;;;;;;;8.20;3.80;;;;;;;;;;5011630;28;20029;-75
2022/07/04 14:08:14;;;;;;;7.50;3.95;;;;;;;;;;5015675;28;20037;-75
2022/07/04 14:10:41;;;;;;;10.23;3.75;;;;;;;;;;5003933;28;20044;-73
2022/07/04 14:13:07;;;;;;;6.78;3.45;;;;;;;;;;5001554;28;20029;-73
2022/07/04 14:15:33;;;;;;;11.13;4.20;;;;;;;;;;5007083;28;20161;-75
2022/07/04 14:17:59;;;;;;;12.27;3.97;;;;;;;;;;5003481;28;20472;-75
2022/07/04 14:20:25;;;;;;;12.50;4.35;;;;;;;;;;5002839;28;20018;-75
2022/07/04 14:22:52;;;;;;;14.88;4.82;;;;;;;;;;5002748;28;20064;-74
2022/07/04 14:25:18;;;;;;;8.30;3.38;;;;;;;;;;4998983;28;20026;-75
2022/07/04 14:27:44;;;;;;;12.10;4.30;;;;;;;;;;5005601;28;20146;-74
2022/07/04 14:30:10;;;;;;;6.82;3.83;;;;;;;;;;5001220;28;20398;-74
2022/07/04 14:32:36;;;;;;;8.85;3.83;;;;;;;;;;5003587;28;20026;-74
2022/07/04 14:35:02;;;;;;;5.75;3.90;;;;;;;;;;4998813;28;20038;-75
2022/07/04 14:37:28;;;;;;;7.40;3.60;;;;;;;;;;5001505;28;20394;-74
2022/07/04 14:39:55;;;;;;;6.38;3.55;;;;;;;;;;4998298;28;20037;-75
2022/07/04 14:42:22;;;;;;;8.10;3.83;;;;;;;;;;5006591;28;20052;-77
2022/07/04 14:44:48;;;;;;;6.60;3.88;;;;;;;;;;4999287;28;20071;-74
2022/07/04 14:47:14;;;;;;;11.48;4.32;;;;;;;;;;5006329;28;20144;-74
2022/07/04 14:49:40;;;;;;;8.20;3.53;;;;;;;;;;4998498;28;20041;-75
2022/07/04 14:52:07;;;;;;;11.27;4.10;;;;;;;;;;5000480;28;20032;-75
2022/07/04 14:54:33;;;;;;;7.88;3.72;;;;;;;;;;5007559;28;20033;-74
2022/07/04 14:56:59;;;;;;;10.00;3.60;;;;;;;;;;5004702;28;20109;-75